createdAt,value
2023-04-04T00:00:09.572Z,71.03
2023-04-04T00:01:09.600Z,71.03
2023-04-04T00:02:09.542Z,71.22
2023-04-04T00:03:09.696Z,71.19
2023-04-04T00:04:09.698Z,71.09
2023-04-04T00:05:09.464Z,71.56
2023-04-04T00:06:09.445Z,71.47
2023-04-04T00:07:09.425Z,71.28
2023-04-04T00:08:09.407Z,71.28
2023-04-04T00:09:09.386Z,71.56
2023-04-04T00:10:09.377Z,71.47
2023-04-04T00:11:09.359Z,71.28
2023-04-04T00:12:09.323Z,71.37
2023-04-04T00:13:09.313Z,71.28
2023-04-04T00:14:09.284Z,71.28
2023-04-04T00:15:09.305Z,71.37
2023-04-04T00:16:09.354Z,71.75
2023-04-04T00:17:09.224Z,71.84
2023-04-04T00:18:09.244Z,71.66
2023-04-04T00:19:09.181Z,71.84
2023-04-04T00:20:09.169Z,71.75
2023-04-04T00:21:09.148Z,71.84
2023-04-04T00:22:09.117Z,71.84
2023-04-04T00:23:09.097Z,71.94
2023-04-04T00:24:09.077Z,71.84
2023-04-04T00:25:09.060Z,72.03
2023-04-04T00:26:09.038Z,71.66
2023-04-04T00:27:09.014Z,71.66
2023-04-04T00:28:08.991Z,71.94
2023-04-04T00:29:08.974Z,72.13
2023-04-04T00:30:08.961Z,72.13
2023-04-04T00:31:08.951Z,72.13
2023-04-04T00:32:08.946Z,72.03
2023-04-04T00:33:09.013Z,72.03
2023-04-04T00:34:08.889Z,71.75
2023-04-04T00:35:08.864Z,72.13
2023-04-04T00:36:08.880Z,72.13
2023-04-04T00:37:08.835Z,71.66
2023-04-04T00:38:08.789Z,71.84
2023-04-04T00:39:08.777Z,72.03
2023-04-04T00:40:08.754Z,71.84
2023-04-04T00:41:08.741Z,72.03
2023-04-04T00:42:08.707Z,71.94
2023-04-04T00:43:08.702Z,72.13
2023-04-04T00:44:08.664Z,72.22
2023-04-04T00:45:08.668Z,71.84
2023-04-04T00:46:08.642Z,71.84
2023-04-04T11:51:21.982Z,14.84
2023-04-04T11:52:21.957Z,15.05
2023-04-04T11:54:26.187Z,15.56
2023-04-04T11:55:26.164Z,16.91
2023-04-04T11:56:26.167Z,17.38
2023-04-04T11:57:26.165Z,17.28
2023-04-04T11:58:26.170Z,16.99
2023-04-04T11:59:26.218Z,16.89
2023-04-04T12:00:26.163Z,16.79
2023-04-04T12:01:26.165Z,16.39
2023-04-04T12:02:26.228Z,16.29
2023-04-04T12:03:26.242Z,16.27
2023-04-04T12:04:26.195Z,16.38
2023-04-04T12:05:26.407Z,16.28
2023-04-04T12:06:26.172Z,15.77
2023-04-04T12:07:26.158Z,16.45
2023-04-04T12:08:26.156Z,16.45
2023-04-04T12:09:26.157Z,16.35
2023-04-04T12:10:26.154Z,16.15
2023-04-04T12:11:26.153Z,16.16
2023-04-04T12:12:26.164Z,15.67
2023-04-04T12:13:26.149Z,15.47
2023-04-04T12:14:26.150Z,15.65
2023-04-04T12:15:26.149Z,16.13
2023-04-04T12:16:26.182Z,15.85
2023-04-04T12:17:26.189Z,15.83
2023-04-04T12:18:26.144Z,15.84
2023-04-04T12:19:26.147Z,15.85
2023-04-04T12:20:26.139Z,15.55
2023-04-04T12:21:26.141Z,15.56
2023-04-04T12:22:26.149Z,15.55
2023-04-04T12:23:26.137Z,15.75
2023-04-04T12:24:26.138Z,15.63
2023-04-04T12:25:26.133Z,15.83
2023-04-04T12:26:26.133Z,15.13
2023-04-04T12:27:26.130Z,15.72
2023-04-04T12:28:27.303Z,15.92
2023-04-04T12:29:26.130Z,15.83
2023-04-04T12:30:26.129Z,15.43
2023-04-04T12:31:26.157Z,15.83
2023-04-04T12:32:26.130Z,15.24
2023-04-04T12:33:26.119Z,15.42
2023-04-04T12:34:26.127Z,15.44
2023-04-04T12:35:26.118Z,15.55
2023-04-04T12:36:26.179Z,15.34
2023-04-04T12:37:26.112Z,15.23
2023-04-04T12:38:26.152Z,15.53
2023-04-04T12:39:26.107Z,15.22
2023-04-04T12:40:26.102Z,15.67
2023-04-04T12:41:26.123Z,16.25
2023-04-04T12:42:26.096Z,16.42
2023-04-04T12:43:26.100Z,16.52
2023-04-04T12:44:26.089Z,16.61
2023-04-04T12:45:26.101Z,16.40
2023-04-04T12:46:26.119Z,16.71
2023-04-04T12:47:26.145Z,16.49
2023-04-04T12:48:26.100Z,17.40
2023-04-04T12:49:26.083Z,19.38
2023-04-04T12:50:26.072Z,21.92
2023-04-04T12:51:26.106Z,25.45
2023-04-04T12:52:26.063Z,27.61
2023-04-04T12:53:28.988Z,29.80
2023-04-04T12:54:26.089Z,31.10
2023-04-04T12:55:26.050Z,32.12
2023-04-04T12:56:26.042Z,33.42
2023-04-04T12:57:26.036Z,34.16
2023-04-04T12:58:26.051Z,35.21
2023-04-04T12:59:26.073Z,35.85
2023-04-04T13:00:26.022Z,36.02
2023-04-04T13:01:26.089Z,36.68
2023-04-04T13:02:26.049Z,36.68
2023-04-04T13:03:26.010Z,36.95
2023-04-04T13:04:26.066Z,37.43
2023-04-04T13:05:25.988Z,37.43
2023-04-04T13:06:26.000Z,37.43
2023-04-04T13:07:25.974Z,37.22
2023-04-04T13:08:25.992Z,37.43
2023-04-04T13:09:25.960Z,37.24
2023-04-04T13:10:25.961Z,37.41
2023-04-04T13:11:25.942Z,37.12
2023-04-04T13:12:25.941Z,37.02
2023-04-04T13:13:25.927Z,37.10
2023-04-04T13:14:25.923Z,37.01
2023-04-04T13:15:25.913Z,36.51
2023-04-04T13:16:25.923Z,36.51
2023-04-04T13:17:25.917Z,36.60
2023-04-04T13:18:25.889Z,36.51
2023-04-04T13:19:26.836Z,36.68
2023-04-04T13:20:25.878Z,36.68
2023-04-04T13:21:25.863Z,36.58
2023-04-04T13:22:25.861Z,36.40
2023-04-04T13:23:25.860Z,36.57
2023-04-04T13:24:25.839Z,36.47
2023-04-04T13:25:25.834Z,36.57
2023-04-04T13:26:25.845Z,36.36
2023-04-04T13:27:25.811Z,36.36
2023-04-04T13:28:25.810Z,36.46
2023-04-04T13:29:25.795Z,36.36
2023-04-04T13:30:25.790Z,36.74
2023-04-04T13:31:25.800Z,36.74
2023-04-04T13:32:25.790Z,36.65
2023-04-04T13:33:25.756Z,36.36
2023-04-04T13:34:25.746Z,36.55
2023-04-04T13:35:25.735Z,36.16
2023-04-04T13:36:25.751Z,36.05
2023-04-04T13:37:25.733Z,36.34
2023-04-04T13:38:27.026Z,36.44
2023-04-04T13:39:25.692Z,36.53
2023-04-04T13:40:25.681Z,36.42
2023-04-04T13:41:25.673Z,36.22
2023-04-04T13:42:25.668Z,36.21
2023-04-04T13:43:25.648Z,36.69
2023-04-04T13:44:26.812Z,36.47
2023-04-04T13:45:25.626Z,36.57
2023-04-04T13:46:25.664Z,36.38
2023-04-04T13:47:25.654Z,36.77
2023-04-04T13:48:25.636Z,36.38
2023-04-04T13:49:25.581Z,36.47
2023-04-04T13:50:25.575Z,36.36
2023-04-04T13:51:25.560Z,36.36
2023-04-04T13:52:25.548Z,36.46
2023-04-04T13:53:25.546Z,36.46
2023-04-04T13:54:25.530Z,36.65
2023-04-04T13:55:25.529Z,36.65
2023-04-04T13:56:25.581Z,36.65
2023-04-04T13:57:25.492Z,36.55
2023-04-04T13:58:25.490Z,36.75
2023-04-04T13:59:25.521Z,36.65
2023-04-04T14:00:25.460Z,36.84
2023-04-04T14:01:25.504Z,36.63
2023-04-04T14:02:25.429Z,36.54
2023-04-04T14:03:25.503Z,36.82
2023-04-04T14:04:25.417Z,36.73
2023-04-04T14:05:25.390Z,36.82
2023-04-04T14:06:25.397Z,36.82
2023-04-04T14:07:25.369Z,37.11
2023-04-04T14:08:25.355Z,36.71
2023-04-04T14:09:25.344Z,36.80
2023-04-04T14:10:25.335Z,36.90
2023-04-04T14:11:25.336Z,37.19
2023-04-04T14:12:25.312Z,37.09
2023-04-04T14:13:25.294Z,36.99
2023-04-04T14:14:25.307Z,36.99
2023-04-04T14:15:25.269Z,36.98
2023-04-04T14:16:25.310Z,36.79
2023-04-04T14:17:25.270Z,36.79
2023-04-04T14:18:25.234Z,36.79
2023-04-04T14:19:25.217Z,37.17
2023-04-04T14:20:25.208Z,37.07
2023-04-04T14:21:25.197Z,37.26
2023-04-04T14:22:25.179Z,37.26
2023-04-04T14:23:25.168Z,37.15
2023-04-04T14:24:25.155Z,37.24
2023-04-04T14:25:25.144Z,37.24
2023-04-04T14:26:25.138Z,37.53
2023-04-04T14:27:25.125Z,37.24
2023-04-04T14:28:25.105Z,37.73
2023-04-04T14:29:25.090Z,37.73
2023-04-04T14:30:25.081Z,38.10
2023-04-04T14:31:25.113Z,38.10
2023-04-04T14:32:25.105Z,38.18
2023-04-04T14:33:25.056Z,37.71
2023-04-04T14:34:25.028Z,37.61
2023-04-04T14:35:25.011Z,37.80
2023-04-04T14:36:25.041Z,38.09
2023-04-04T14:37:24.991Z,37.61
2023-04-04T14:38:24.971Z,37.61
2023-04-04T14:39:24.966Z,37.88
2023-04-04T14:40:24.942Z,37.61
2023-04-04T14:41:24.933Z,37.68
2023-04-04T14:42:24.927Z,37.68
2023-04-04T14:43:24.912Z,37.78
2023-04-04T14:44:24.893Z,38.35
2023-04-04T14:45:24.874Z,38.26
2023-04-04T14:46:24.888Z,38.17
2023-04-04T14:47:24.874Z,38.26
2023-04-04T14:48:24.839Z,38.07
2023-04-04T14:49:24.830Z,38.17
2023-04-04T14:50:24.824Z,38.07
2023-04-04T14:51:24.800Z,38.17
2023-04-04T14:52:24.790Z,38.17
2023-04-04T14:53:24.767Z,38.07
2023-04-04T14:54:24.763Z,38.07
2023-04-04T14:55:24.745Z,38.26
2023-04-04T14:56:24.728Z,38.17
2023-04-04T14:57:24.719Z,37.78
2023-04-04T14:58:24.700Z,38.07
2023-04-04T14:59:24.738Z,38.07
2023-04-04T15:00:24.678Z,38.09
2023-04-04T15:01:24.709Z,37.71
2023-04-04T15:02:24.651Z,37.71
2023-04-04T15:03:24.653Z,37.59
2023-04-04T15:04:24.627Z,37.51
2023-04-04T15:05:24.611Z,37.97
2023-04-04T15:06:24.596Z,37.99
2023-04-04T15:07:24.585Z,38.09
2023-04-04T15:08:24.562Z,38.18
2023-04-04T15:09:24.554Z,37.99
2023-04-04T15:10:24.533Z,37.80
2023-04-04T15:11:24.521Z,37.88
2023-04-04T15:12:24.507Z,38.37
2023-04-04T15:13:24.499Z,38.37
2023-04-04T15:14:24.512Z,38.37
2023-04-04T15:15:24.468Z,38.37
2023-04-04T15:16:24.471Z,37.80
2023-04-04T15:17:24.449Z,37.71
2023-04-04T15:18:24.431Z,37.61
2023-04-04T15:19:24.413Z,38.37
2023-04-04T15:20:24.422Z,38.28
2023-04-04T15:21:24.383Z,38.26
2023-04-04T15:22:24.370Z,38.35
2023-04-04T15:23:24.352Z,38.17
2023-04-04T15:24:24.354Z,38.07
2023-04-04T15:25:24.331Z,38.17
2023-04-04T15:26:24.311Z,37.86
2023-04-04T15:27:24.316Z,38.43
2023-04-04T15:28:24.286Z,38.24
2023-04-04T15:29:24.270Z,38.71
2023-04-04T15:30:24.251Z,38.34
2023-04-04T15:31:24.264Z,38.34
2023-04-04T15:32:24.288Z,38.34
2023-04-04T15:33:24.215Z,38.34
2023-04-04T15:34:24.202Z,38.24
2023-04-04T15:35:24.180Z,38.24
2023-04-04T15:36:24.218Z,38.45
2023-04-04T15:37:24.184Z,38.43
2023-04-04T15:38:24.144Z,37.95
2023-04-04T15:39:24.133Z,37.95
2023-04-04T15:40:24.110Z,37.76
2023-04-04T15:41:24.097Z,37.86
2023-04-04T15:42:24.082Z,37.95
2023-04-04T15:43:24.068Z,38.43
2023-04-04T15:44:24.061Z,38.34
2023-04-04T15:45:24.045Z,38.43
2023-04-04T15:46:24.080Z,38.43
2023-04-04T15:47:24.050Z,38.43
2023-04-04T15:48:23.999Z,38.53
2023-04-04T15:49:24.029Z,38.34
2023-04-04T15:50:23.972Z,38.24
2023-04-04T15:51:23.956Z,38.43
2023-04-04T15:52:23.981Z,38.43
2023-04-04T15:53:23.940Z,38.43
2023-04-04T15:54:23.917Z,38.53
2023-04-04T15:55:23.894Z,38.34
2023-04-04T15:56:23.887Z,38.34
2023-04-04T15:57:23.889Z,38.43
2023-04-04T15:58:23.863Z,38.43
2023-04-04T15:59:23.961Z,38.34
2023-04-04T16:00:23.833Z,38.34
2023-04-04T16:01:23.996Z,38.34
2023-04-04T16:02:23.860Z,38.62
2023-04-04T16:03:24.091Z,38.70
2023-04-04T16:04:23.922Z,38.98
2023-04-04T16:05:23.763Z,38.70
2023-04-04T16:06:23.751Z,38.79
2023-04-04T16:07:23.827Z,38.89
2023-04-04T16:08:23.715Z,38.89
2023-04-04T16:09:23.699Z,39.36
2023-04-04T16:10:23.723Z,39.27
2023-04-04T16:11:23.683Z,39.27
2023-04-04T16:12:23.654Z,39.27
2023-04-04T16:13:23.640Z,39.27
2023-04-04T16:14:23.629Z,39.15
2023-04-04T16:15:23.621Z,39.25
2023-04-04T16:16:23.682Z,39.25
2023-04-04T16:17:23.587Z,39.25
2023-04-04T16:18:23.598Z,39.34
2023-04-04T16:19:23.565Z,39.44
2023-04-04T16:20:23.575Z,39.42
2023-04-04T16:21:23.529Z,39.42
2023-04-04T16:22:23.516Z,39.51
2023-04-04T16:23:23.497Z,39.70
2023-04-04T16:24:23.492Z,39.99
2023-04-04T16:25:23.537Z,39.90
2023-04-04T16:26:23.459Z,40.09
2023-04-04T16:27:23.471Z,40.09
2023-04-04T16:28:23.438Z,40.28
2023-04-04T16:29:23.499Z,40.47
2023-04-04T16:30:23.427Z,40.09
2023-04-04T16:31:23.415Z,40.09
2023-04-04T16:32:23.414Z,39.90
2023-04-04T16:33:23.349Z,40.37
2023-04-04T16:34:23.356Z,39.99
2023-04-04T16:35:23.331Z,39.90
2023-04-04T16:36:23.364Z,40.47
2023-04-04T16:37:23.328Z,39.90
2023-04-04T16:38:23.280Z,39.99
2023-04-04T16:39:23.286Z,39.87
2023-04-04T16:40:23.263Z,39.97
2023-04-04T16:41:23.262Z,40.06
2023-04-04T16:42:23.222Z,40.06
2023-04-04T16:43:23.208Z,40.45
2023-04-04T16:44:23.186Z,40.73
2023-04-04T16:45:23.192Z,40.64
2023-04-04T16:46:23.210Z,40.45
2023-04-04T16:47:23.139Z,40.64
2023-04-04T16:48:23.143Z,40.81
2023-04-04T16:49:23.137Z,40.71
2023-04-04T16:50:23.202Z,40.81
2023-04-04T16:51:23.209Z,41.19
2023-04-04T16:52:23.071Z,40.81
2023-04-04T16:53:23.077Z,41.19
2023-04-04T16:54:23.084Z,41.09
2023-04-04T16:55:23.044Z,41.28
2023-04-04T16:56:23.588Z,41.26
2023-04-04T16:57:23.043Z,41.36
2023-04-04T16:58:23.014Z,41.46
2023-04-04T16:59:22.995Z,41.26
2023-04-04T17:00:22.947Z,41.26
2023-04-04T17:01:23.216Z,41.64
2023-04-04T17:02:22.922Z,41.55
2023-04-04T17:03:22.898Z,41.53
2023-04-04T17:04:22.986Z,41.81
2023-04-04T17:05:22.899Z,41.72
2023-04-04T17:06:22.886Z,41.72
2023-04-04T17:07:22.848Z,41.72
2023-04-04T17:08:22.838Z,41.72
2023-04-04T17:09:22.852Z,41.62
2023-04-04T17:10:22.814Z,41.79
2023-04-04T17:11:22.781Z,41.79
2023-04-04T17:12:22.777Z,41.89
2023-04-04T17:13:22.803Z,41.98
2023-04-04T17:14:22.747Z,41.89
2023-04-04T17:15:22.740Z,41.98
2023-04-04T17:16:22.698Z,42.27
2023-04-04T17:17:22.697Z,42.27
2023-04-04T17:18:22.672Z,42.36
2023-04-04T17:19:22.651Z,42.17
2023-04-04T17:20:22.633Z,42.36
2023-04-04T17:21:22.616Z,42.08
2023-04-04T17:22:22.604Z,42.36
2023-04-04T17:23:22.588Z,42.43
2023-04-04T17:24:22.590Z,42.46
2023-04-04T17:25:22.576Z,42.34
2023-04-04T17:26:22.542Z,42.53
2023-04-04T17:27:22.578Z,42.72
2023-04-04T17:28:22.505Z,42.53
2023-04-04T17:29:22.520Z,42.63
2023-04-04T17:30:22.513Z,42.43
2023-04-04T17:31:22.503Z,42.43
2023-04-04T17:32:22.480Z,42.53
2023-04-04T17:33:22.426Z,42.43
2023-04-04T17:34:22.414Z,42.43
2023-04-04T17:35:22.408Z,42.55
2023-04-04T17:36:22.458Z,42.43
2023-04-04T17:37:22.357Z,42.46
2023-04-04T17:38:22.360Z,42.53
2023-04-04T17:39:22.326Z,42.53
2023-04-04T17:40:22.311Z,42.53
2023-04-04T17:41:22.307Z,42.53
2023-04-04T17:42:22.299Z,42.63
2023-04-04T17:43:22.264Z,42.63
2023-04-04T17:44:22.286Z,42.82
2023-04-04T17:45:22.230Z,42.72
2023-04-04T17:46:22.230Z,42.72
2023-04-04T17:47:22.197Z,43.19
2023-04-04T17:48:22.222Z,43.19
2023-04-04T17:49:22.183Z,43.10
2023-04-04T17:50:22.183Z,42.91
2023-04-04T17:51:22.252Z,43.19
2023-04-04T17:52:22.117Z,43.01
2023-04-04T17:53:23.629Z,42.98
2023-04-04T17:54:22.137Z,43.08
2023-04-04T17:55:22.078Z,43.27
2023-04-04T17:56:22.058Z,43.55
2023-04-04T17:57:22.046Z,43.65
2023-04-04T17:58:22.023Z,44.21
2023-04-04T17:59:22.050Z,44.21
2023-04-04T18:00:22.130Z,44.21
2023-04-04T18:01:22.085Z,44.02
2023-04-04T18:02:22.086Z,44.12
2023-04-04T18:03:22.134Z,44.60
2023-04-04T18:04:22.025Z,44.31
2023-04-04T18:05:22.032Z,44.40
2023-04-04T18:06:22.004Z,44.31
2023-04-04T18:07:22.198Z,44.50
2023-04-04T18:08:21.991Z,44.21
2023-04-04T18:09:21.935Z,44.02
2023-04-04T18:10:22.013Z,44.21
2023-04-04T18:11:21.927Z,43.82
2023-04-04T18:12:21.959Z,44.20
2023-04-04T18:13:21.886Z,44.10
2023-04-04T18:14:21.885Z,44.20
2023-04-04T18:15:21.843Z,44.95
2023-04-04T18:16:21.859Z,44.67
2023-04-04T18:17:21.801Z,44.67
2023-04-04T18:18:21.811Z,44.48
2023-04-04T18:19:21.785Z,44.67
2023-04-04T18:20:34.022Z,45.05
2023-04-04T18:21:21.739Z,44.95
2023-04-04T18:22:21.728Z,45.05
2023-04-04T18:23:21.741Z,44.67
2023-04-04T18:24:21.685Z,45.50
2023-04-04T18:25:21.709Z,45.31
2023-04-04T18:26:21.676Z,45.31
2023-04-04T18:27:21.639Z,45.21
2023-04-04T18:28:21.631Z,45.12
2023-04-04T18:29:21.610Z,45.31
2023-04-04T18:30:21.621Z,45.12
2023-04-04T18:31:21.656Z,45.40
2023-04-04T18:32:21.602Z,45.31
2023-04-04T18:33:21.554Z,45.40
2023-04-04T18:34:21.510Z,45.69
2023-04-04T18:35:21.529Z,45.88
2023-04-04T18:36:21.556Z,45.88
2023-04-04T18:37:21.506Z,45.88
2023-04-04T18:38:21.504Z,45.69
2023-04-04T18:39:21.442Z,46.07
2023-04-04T18:40:21.410Z,45.50
2023-04-04T18:41:21.394Z,45.21
2023-04-04T18:42:21.386Z,45.31
2023-04-04T18:43:21.355Z,45.21
2023-04-04T18:44:21.342Z,45.50
2023-04-04T18:45:29.989Z,45.21
2023-04-04T18:46:21.358Z,45.21
2023-04-04T18:47:21.298Z,45.50
2023-04-04T18:48:21.304Z,45.12
2023-04-04T18:49:21.282Z,45.88
2023-04-04T18:50:21.343Z,45.88
2023-04-04T18:51:23.501Z,45.78
2023-04-04T18:52:21.223Z,45.69
2023-04-04T18:53:21.198Z,45.59
2023-04-04T18:54:21.174Z,45.59
2023-04-04T18:55:21.178Z,45.50
2023-04-04T18:56:21.132Z,45.88
2023-04-04T18:57:21.123Z,46.26
2023-04-04T18:58:21.100Z,45.97
2023-04-04T18:59:21.025Z,45.88
2023-04-04T19:00:21.112Z,45.97
2023-04-04T19:01:21.131Z,46.07
2023-04-04T19:02:21.052Z,45.88
2023-04-04T19:03:21.056Z,46.16
2023-04-04T19:04:21.016Z,45.88
2023-04-04T19:05:21.023Z,46.07
2023-04-04T19:06:20.958Z,45.78
2023-04-04T19:07:20.946Z,46.33
2023-04-04T19:08:20.930Z,46.07
2023-04-04T19:09:20.934Z,46.04
2023-04-04T19:10:20.922Z,46.14
2023-04-04T19:11:20.888Z,46.14
2023-04-04T19:12:20.873Z,46.42
2023-04-04T19:13:20.868Z,46.80
2023-04-04T19:14:20.849Z,46.80
2023-04-04T19:15:20.814Z,46.61
2023-04-04T19:16:20.831Z,46.61
2023-04-04T19:17:20.788Z,46.52
2023-04-04T19:18:20.775Z,46.42
2023-04-04T19:19:20.738Z,46.80
2023-04-04T19:20:20.720Z,46.61
2023-04-04T19:21:20.743Z,46.61
2023-04-04T19:22:20.750Z,46.61
2023-04-04T19:23:20.713Z,46.61
2023-04-04T19:24:20.669Z,46.61
2023-04-04T19:25:20.632Z,46.42
2023-04-04T19:26:20.606Z,46.33
2023-04-04T19:27:20.639Z,46.52
2023-04-04T19:28:20.641Z,46.42
2023-04-04T19:29:20.642Z,46.52
2023-04-04T19:30:20.572Z,46.61
2023-04-04T19:31:20.574Z,46.42
2023-04-04T19:32:20.509Z,46.90
2023-04-04T19:33:21.288Z,47.09
2023-04-04T19:34:20.503Z,46.90
2023-04-04T19:35:20.535Z,46.61
2023-04-04T19:36:20.466Z,46.61
2023-04-04T19:37:20.446Z,46.90
2023-04-04T19:38:20.405Z,46.90
2023-04-04T19:39:20.442Z,46.90
2023-04-04T19:40:21.213Z,46.99
2023-04-04T19:41:20.366Z,47.09
2023-04-04T19:42:20.360Z,47.18
2023-04-04T19:43:20.317Z,47.47
2023-04-04T19:44:20.309Z,47.37
2023-04-04T19:45:20.272Z,47.09
2023-04-04T19:46:20.314Z,47.09
2023-04-04T19:47:20.230Z,47.66
2023-04-04T19:48:20.331Z,47.66
2023-04-04T19:49:20.257Z,47.37
2023-04-04T19:50:20.201Z,47.28
2023-04-04T19:51:20.191Z,47.66
2023-04-04T19:52:20.139Z,47.16
2023-04-04T19:53:20.208Z,47.16
2023-04-04T19:54:20.182Z,47.82
2023-04-04T19:55:20.154Z,47.63
2023-04-04T19:56:20.100Z,47.44
2023-04-04T19:57:20.098Z,47.44
2023-04-04T19:58:20.089Z,47.53
2023-04-04T19:59:20.066Z,47.63
2023-04-04T20:00:20.029Z,47.34
2023-04-04T20:01:20.041Z,47.53
2023-04-04T20:02:20.061Z,47.53
2023-04-04T20:03:19.989Z,47.63
2023-04-04T20:04:19.968Z,47.63
2023-04-04T20:05:19.915Z,47.91
2023-04-04T20:06:19.897Z,47.72
2023-04-04T20:07:19.922Z,48.01
2023-04-04T20:08:19.854Z,47.53
2023-04-04T20:09:19.864Z,48.49
2023-04-04T20:10:19.847Z,48.10
2023-04-04T20:11:19.866Z,48.01
2023-04-04T20:12:19.834Z,48.29
2023-04-04T20:13:19.763Z,48.29
2023-04-04T20:14:19.778Z,48.20
2023-04-04T20:15:19.746Z,48.20
2023-04-04T20:16:19.720Z,48.10
2023-04-04T20:17:19.705Z,48.20
2023-04-04T20:18:19.690Z,48.29
2023-04-04T20:19:19.705Z,48.49
2023-04-04T20:20:19.627Z,48.39
2023-04-04T20:21:19.648Z,48.39
2023-04-04T20:22:19.644Z,48.58
2023-04-04T20:23:19.992Z,49.03
2023-04-04T20:24:19.576Z,48.74
2023-04-04T20:25:19.578Z,49.03
2023-04-04T20:26:19.517Z,48.84
2023-04-04T20:27:19.524Z,48.84
2023-04-04T20:28:19.524Z,48.84
2023-04-04T20:29:19.528Z,49.41
2023-04-04T20:30:19.449Z,49.88
2023-04-04T20:31:19.483Z,49.41
2023-04-04T20:32:19.406Z,49.50
2023-04-04T20:33:19.414Z,49.60
2023-04-04T20:34:19.425Z,49.60
2023-04-04T20:35:19.357Z,49.57
2023-04-04T20:36:19.368Z,49.38
2023-04-04T20:37:19.361Z,49.76
2023-04-04T20:38:19.301Z,49.95
2023-04-04T20:39:19.300Z,49.66
2023-04-04T20:40:19.287Z,49.57
2023-04-04T20:41:19.311Z,49.48
2023-04-04T20:42:19.248Z,49.85
2023-04-04T20:43:19.254Z,49.95
2023-04-04T20:44:19.194Z,50.04
2023-04-04T20:45:19.175Z,50.04
2023-04-04T20:46:19.258Z,50.04
2023-04-04T20:47:19.194Z,50.04
2023-04-04T20:48:19.171Z,50.42
2023-04-04T20:49:19.113Z,50.42
2023-04-04T20:50:19.248Z,50.52
2023-04-04T20:51:19.110Z,50.33
2023-04-04T20:52:19.083Z,50.33
2023-04-04T20:53:19.103Z,50.61
2023-04-04T20:54:19.040Z,50.90
2023-04-04T20:55:19.006Z,50.61
2023-04-04T20:56:18.998Z,50.96
2023-04-04T20:57:18.976Z,50.78
2023-04-04T20:58:18.963Z,50.78
2023-04-04T20:59:19.044Z,50.78
2023-04-04T21:00:18.936Z,50.59
2023-04-04T21:01:18.933Z,50.49
2023-04-04T21:02:18.934Z,50.40
2023-04-04T21:03:18.900Z,50.59
2023-04-04T21:04:18.941Z,50.40
2023-04-04T21:05:18.811Z,50.87
2023-04-04T21:06:18.790Z,50.87
2023-04-04T21:07:18.770Z,51.06
2023-04-04T21:08:18.794Z,51.25
2023-04-04T21:09:18.756Z,51.15
2023-04-04T21:10:18.786Z,50.96
2023-04-04T21:11:18.707Z,51.25
2023-04-04T21:12:18.718Z,51.06
2023-04-04T21:13:18.667Z,51.25
2023-04-04T21:14:18.663Z,51.43
2023-04-04T21:15:18.649Z,51.34
2023-04-04T21:16:18.676Z,51.25
2023-04-04T21:17:18.620Z,51.25
2023-04-04T21:18:18.602Z,50.96
2023-04-04T21:19:18.544Z,51.43
2023-04-04T21:20:18.556Z,51.25
2023-04-04T21:21:18.553Z,51.53
2023-04-04T21:22:18.566Z,51.15
2023-04-04T21:23:18.471Z,51.15
2023-04-04T21:24:18.482Z,51.91
2023-04-04T21:25:18.445Z,51.62
2023-04-04T21:26:18.442Z,51.72
2023-04-04T21:27:18.410Z,51.62
2023-04-04T21:28:18.561Z,51.62
2023-04-04T21:29:18.376Z,51.81
2023-04-04T21:30:18.349Z,51.53
2023-04-04T21:31:18.445Z,51.62
2023-04-04T21:32:18.338Z,51.72
2023-04-04T21:33:18.347Z,51.72
2023-04-04T21:34:18.162Z,51.81
2023-04-04T21:35:18.138Z,52.19
2023-04-04T21:36:18.122Z,52.00
2023-04-04T21:37:18.102Z,52.10
2023-04-04T21:38:18.083Z,52.00
2023-04-04T21:39:18.647Z,52.10
2023-04-04T21:40:18.047Z,52.19
2023-04-04T21:41:18.026Z,51.81
2023-04-04T21:42:18.177Z,51.53
2023-04-04T21:43:17.986Z,51.62
2023-04-04T21:44:17.987Z,51.72
2023-04-04T21:45:17.957Z,51.62
